sensor_id;sensor_type;location;lat;lon;timestamp;temperature;humidity
68922;DHT22;55959;51.244;5.724;2024-02-21T00:00:58;12.60;70.90
68922;DHT22;55959;51.244;5.724;2024-02-21T00:03:24;12.60;70.90
68922;DHT22;55959;51.244;5.724;2024-02-21T00:05:49;12.60;70.90
68922;DHT22;55959;51.244;5.724;2024-02-21T00:08:15;12.70;70.90
68922;DHT22;55959;51.244;5.724;2024-02-21T00:10:41;12.60;70.80
68922;DHT22;55959;51.244;5.724;2024-02-21T00:13:07;12.70;70.90
68922;DHT22;55959;51.244;5.724;2024-02-21T00:15:32;12.60;71.80
68922;DHT22;55959;51.244;5.724;2024-02-21T00:17:58;12.70;70.90
68922;DHT22;55959;51.244;5.724;2024-02-21T00:20:24;12.70;70.90
68922;DHT22;55959;51.244;5.724;2024-02-21T00:22:51;12.70;70.90
68922;DHT22;55959;51.244;5.724;2024-02-21T00:25:17;12.70;71.00
68922;DHT22;55959;51.244;5.724;2024-02-21T00:27:43;12.70;70.90
68922;DHT22;55959;51.244;5.724;2024-02-21T00:30:09;12.70;71.00
68922;DHT22;55959;51.244;5.724;2024-02-21T00:32:35;12.70;70.90
68922;DHT22;55959;51.244;5.724;2024-02-21T00:35:02;12.70;70.90
68922;DHT22;55959;51.244;5.724;2024-02-21T00:37:28;12.70;71.00
68922;DHT22;55959;51.244;5.724;2024-02-21T00:39:56;12.70;71.00
68922;DHT22;55959;51.244;5.724;2024-02-21T00:42:22;12.70;70.90
68922;DHT22;55959;51.244;5.724;2024-02-21T00:44:48;12.70;70.90
68922;DHT22;55959;51.244;5.724;2024-02-21T00:47:13;12.70;70.90
68922;DHT22;55959;51.244;5.724;2024-02-21T00:49:39;12.70;70.90
68922;DHT22;55959;51.244;5.724;2024-02-21T00:52:05;12.70;71.00
68922;DHT22;55959;51.244;5.724;2024-02-21T00:54:30;12.70;71.00
68922;DHT22;55959;51.244;5.724;2024-02-21T00:56:56;12.70;71.00
68922;DHT22;55959;51.244;5.724;2024-02-21T00:59:22;12.70;71.00
68922;DHT22;55959;51.244;5.724;2024-02-21T01:01:48;12.70;70.90
68922;DHT22;55959;51.244;5.724;2024-02-21T01:04:13;12.70;70.90
68922;DHT22;55959;51.244;5.724;2024-02-21T01:06:39;12.70;71.00
68922;DHT22;55959;51.244;5.724;2024-02-21T01:09:08;12.70;70.90
68922;DHT22;55959;51.244;5.724;2024-02-21T01:11:33;12.70;70.90
68922;DHT22;55959;51.244;5.724;2024-02-21T01:13:59;12.70;70.90
68922;DHT22;55959;51.244;5.724;2024-02-21T01:16:26;12.70;70.90
68922;DHT22;55959;51.244;5.724;2024-02-21T01:18:52;12.70;70.80
68922;DHT22;55959;51.244;5.724;2024-02-21T01:21:17;12.70;70.90
68922;DHT22;55959;51.244;5.724;2024-02-21T01:23:43;12.70;70.80
68922;DHT22;55959;51.244;5.724;2024-02-21T01:26:09;12.70;70.90
68922;DHT22;55959;51.244;5.724;2024-02-21T01:28:38;12.70;71.70
68922;DHT22;55959;51.244;5.724;2024-02-21T01:31:04;12.70;70.70
68922;DHT22;55959;51.244;5.724;2024-02-21T01:33:30;12.70;70.80
68922;DHT22;55959;51.244;5.724;2024-02-21T01:36:03;12.70;70.70
68922;DHT22;55959;51.244;5.724;2024-02-21T01:38:29;12.70;70.70
68922;DHT22;55959;51.244;5.724;2024-02-21T01:40:57;12.70;70.70
68922;DHT22;55959;51.244;5.724;2024-02-21T01:43:23;12.70;70.70
68922;DHT22;55959;51.244;5.724;2024-02-21T01:45:50;12.70;70.70
68922;DHT22;55959;51.244;5.724;2024-02-21T01:48:18;12.70;70.70
68922;DHT22;55959;51.244;5.724;2024-02-21T01:50:48;12.70;70.70
68922;DHT22;55959;51.244;5.724;2024-02-21T01:53:29;12.70;70.60
68922;DHT22;55959;51.244;5.724;2024-02-21T01:55:56;12.70;70.70
68922;DHT22;55959;51.244;5.724;2024-02-21T01:58:22;12.70;70.60
68922;DHT22;55959;51.244;5.724;2024-02-21T02:00:50;12.70;70.60
68922;DHT22;55959;51.244;5.724;2024-02-21T02:03:16;12.70;70.50
68922;DHT22;55959;51.244;5.724;2024-02-21T02:05:46;12.70;71.40
68922;DHT22;55959;51.244;5.724;2024-02-21T02:08:14;12.60;70.50
68922;DHT22;55959;51.244;5.724;2024-02-21T02:10:44;12.70;70.50
68922;DHT22;55959;51.244;5.724;2024-02-21T02:13:14;12.60;70.50
68922;DHT22;55959;51.244;5.724;2024-02-21T02:15:44;12.60;70.50
68922;DHT22;55959;51.244;5.724;2024-02-21T02:18:11;12.60;70.50
68922;DHT22;55959;51.244;5.724;2024-02-21T02:20:38;12.60;70.70
68922;DHT22;55959;51.244;5.724;2024-02-21T02:25:55;12.60;70.70
68922;DHT22;55959;51.244;5.724;2024-02-21T02:28:22;12.60;70.70
68922;DHT22;55959;51.244;5.724;2024-02-21T02:30:48;12.60;70.70
68922;DHT22;55959;51.244;5.724;2024-02-21T02:33:14;12.60;70.80
68922;DHT22;55959;51.244;5.724;2024-02-21T02:35:40;12.60;70.80
68922;DHT22;55959;51.244;5.724;2024-02-21T02:38:06;12.60;70.90
68922;DHT22;55959;51.244;5.724;2024-02-21T02:40:33;12.60;70.80
68922;DHT22;55959;51.244;5.724;2024-02-21T02:42:59;12.60;70.80
68922;DHT22;55959;51.244;5.724;2024-02-21T02:45:25;12.70;70.80
68922;DHT22;55959;51.244;5.724;2024-02-21T02:47:55;12.60;70.70
68922;DHT22;55959;51.244;5.724;2024-02-21T02:50:24;12.60;70.70
68922;DHT22;55959;51.244;5.724;2024-02-21T02:52:50;12.60;70.60
68922;DHT22;55959;51.244;5.724;2024-02-21T02:55:16;12.60;70.70
68922;DHT22;55959;51.244;5.724;2024-02-21T02:57:42;12.60;70.70
68922;DHT22;55959;51.244;5.724;2024-02-21T03:00:12;12.60;70.70
68922;DHT22;55959;51.244;5.724;2024-02-21T03:02:40;12.60;70.70
68922;DHT22;55959;51.244;5.724;2024-02-21T03:05:15;12.60;70.70
68922;DHT22;55959;51.244;5.724;2024-02-21T03:07:45;12.60;70.70
68922;DHT22;55959;51.244;5.724;2024-02-21T03:10:12;12.60;70.70
68922;DHT22;55959;51.244;5.724;2024-02-21T03:12:38;12.60;70.50
68922;DHT22;55959;51.244;5.724;2024-02-21T03:15:05;12.60;70.60
68922;DHT22;55959;51.244;5.724;2024-02-21T03:17:32;12.60;70.50
68922;DHT22;55959;51.244;5.724;2024-02-21T03:20:00;12.60;70.50
68922;DHT22;55959;51.244;5.724;2024-02-21T03:22:26;12.60;70.60
68922;DHT22;55959;51.244;5.724;2024-02-21T03:24:53;12.60;70.60
68922;DHT22;55959;51.244;5.724;2024-02-21T03:27:19;12.50;70.60
68922;DHT22;55959;51.244;5.724;2024-02-21T03:29:45;12.60;70.70
68922;DHT22;55959;51.244;5.724;2024-02-21T03:32:10;12.50;70.50
68922;DHT22;55959;51.244;5.724;2024-02-21T03:34:36;12.50;70.50
68922;DHT22;55959;51.244;5.724;2024-02-21T03:37:02;12.50;70.60
68922;DHT22;55959;51.244;5.724;2024-02-21T03:39:31;12.50;70.60
68922;DHT22;55959;51.244;5.724;2024-02-21T03:41:58;12.50;70.60
68922;DHT22;55959;51.244;5.724;2024-02-21T03:44:26;12.50;70.70
68922;DHT22;55959;51.244;5.724;2024-02-21T03:46:52;12.50;70.60
68922;DHT22;55959;51.244;5.724;2024-02-21T03:49:18;12.50;70.50
68922;DHT22;55959;51.244;5.724;2024-02-21T03:51:44;12.50;70.60
68922;DHT22;55959;51.244;5.724;2024-02-21T03:54:09;12.50;70.50
68922;DHT22;55959;51.244;5.724;2024-02-21T03:56:38;12.50;70.50
68922;DHT22;55959;51.244;5.724;2024-02-21T03:59:06;12.60;70.70
68922;DHT22;55959;51.244;5.724;2024-02-21T04:01:35;12.50;70.40
68922;DHT22;55959;51.244;5.724;2024-02-21T04:04:01;12.50;70.40
68922;DHT22;55959;51.244;5.724;2024-02-21T04:06:27;12.50;70.40
68922;DHT22;55959;51.244;5.724;2024-02-21T04:08:53;12.50;70.30
68922;DHT22;55959;51.244;5.724;2024-02-21T04:11:19;12.50;70.30
68922;DHT22;55959;51.244;5.724;2024-02-21T04:13:45;12.50;70.30
68922;DHT22;55959;51.244;5.724;2024-02-21T04:16:14;12.50;70.30
68922;DHT22;55959;51.244;5.724;2024-02-21T04:18:41;12.50;70.30
68922;DHT22;55959;51.244;5.724;2024-02-21T04:21:07;12.40;70.30
68922;DHT22;55959;51.244;5.724;2024-02-21T04:23:33;12.40;70.30
68922;DHT22;55959;51.244;5.724;2024-02-21T04:25:59;12.50;70.30
68922;DHT22;55959;51.244;5.724;2024-02-21T04:28:25;12.50;70.30
68922;DHT22;55959;51.244;5.724;2024-02-21T04:30:50;12.40;70.30
68922;DHT22;55959;51.244;5.724;2024-02-21T04:33:16;12.40;70.30
68922;DHT22;55959;51.244;5.724;2024-02-21T04:35:42;12.40;70.20
68922;DHT22;55959;51.244;5.724;2024-02-21T04:38:08;12.40;70.20
68922;DHT22;55959;51.244;5.724;2024-02-21T04:40:33;12.40;70.30
68922;DHT22;55959;51.244;5.724;2024-02-21T04:42:59;12.40;70.40
68922;DHT22;55959;51.244;5.724;2024-02-21T04:45:25;12.40;70.50
68922;DHT22;55959;51.244;5.724;2024-02-21T04:47:51;12.30;70.50
68922;DHT22;55959;51.244;5.724;2024-02-21T04:50:16;12.40;70.60
68922;DHT22;55959;51.244;5.724;2024-02-21T04:52:43;12.30;70.50
68922;DHT22;55959;51.244;5.724;2024-02-21T04:55:09;12.40;70.70
68922;DHT22;55959;51.244;5.724;2024-02-21T04:57:34;12.40;70.70
68922;DHT22;55959;51.244;5.724;2024-02-21T05:00:00;12.40;70.80
68922;DHT22;55959;51.244;5.724;2024-02-21T05:02:26;12.30;70.70
68922;DHT22;55959;51.244;5.724;2024-02-21T05:04:52;12.30;70.80
68922;DHT22;55959;51.244;5.724;2024-02-21T05:07:18;12.30;70.80
68922;DHT22;55959;51.244;5.724;2024-02-21T05:09:45;12.30;70.80
68922;DHT22;55959;51.244;5.724;2024-02-21T05:12:11;12.30;70.80
68922;DHT22;55959;51.244;5.724;2024-02-21T05:14:37;12.30;70.80
68922;DHT22;55959;51.244;5.724;2024-02-21T05:17:04;12.30;70.90
68922;DHT22;55959;51.244;5.724;2024-02-21T05:19:30;12.30;71.90
68922;DHT22;55959;51.244;5.724;2024-02-21T05:21:55;12.30;70.90
68922;DHT22;55959;51.244;5.724;2024-02-21T05:24:21;12.30;70.90
68922;DHT22;55959;51.244;5.724;2024-02-21T05:26:47;12.30;70.90
68922;DHT22;55959;51.244;5.724;2024-02-21T05:29:13;12.30;70.90
68922;DHT22;55959;51.244;5.724;2024-02-21T05:34:17;12.30;71.00
68922;DHT22;55959;51.244;5.724;2024-02-21T05:36:43;12.30;70.90
68922;DHT22;55959;51.244;5.724;2024-02-21T05:39:09;12.30;70.90
68922;DHT22;55959;51.244;5.724;2024-02-21T05:41:35;12.30;70.90
68922;DHT22;55959;51.244;5.724;2024-02-21T05:44:01;12.30;70.90
68922;DHT22;55959;51.244;5.724;2024-02-21T05:46:26;12.30;70.90
68922;DHT22;55959;51.244;5.724;2024-02-21T05:48:52;12.30;70.80
68922;DHT22;55959;51.244;5.724;2024-02-21T05:51:18;12.30;70.80
68922;DHT22;55959;51.244;5.724;2024-02-21T05:53:44;12.30;70.80
68922;DHT22;55959;51.244;5.724;2024-02-21T05:56:10;12.30;70.80
68922;DHT22;55959;51.244;5.724;2024-02-21T05:58:37;12.30;70.70
68922;DHT22;55959;51.244;5.724;2024-02-21T06:01:03;12.30;70.70
68922;DHT22;55959;51.244;5.724;2024-02-21T06:03:30;12.30;70.70
68922;DHT22;55959;51.244;5.724;2024-02-21T06:05:56;12.30;70.80
68922;DHT22;55959;51.244;5.724;2024-02-21T06:08:22;12.30;70.80
68922;DHT22;55959;51.244;5.724;2024-02-21T06:10:47;12.30;70.90
68922;DHT22;55959;51.244;5.724;2024-02-21T06:13:14;12.30;70.90
68922;DHT22;55959;51.244;5.724;2024-02-21T06:15:40;12.30;70.90
68922;DHT22;55959;51.244;5.724;2024-02-21T06:18:06;12.30;70.90
68922;DHT22;55959;51.244;5.724;2024-02-21T06:20:32;12.20;70.90
68922;DHT22;55959;51.244;5.724;2024-02-21T06:22:57;12.20;70.90
68922;DHT22;55959;51.244;5.724;2024-02-21T06:25:23;12.20;71.00
68922;DHT22;55959;51.244;5.724;2024-02-21T06:27:49;12.20;71.00
68922;DHT22;55959;51.244;5.724;2024-02-21T06:30:15;12.20;71.10
68922;DHT22;55959;51.244;5.724;2024-02-21T06:32:40;12.20;71.10
68922;DHT22;55959;51.244;5.724;2024-02-21T06:35:06;12.20;71.10
68922;DHT22;55959;51.244;5.724;2024-02-21T06:37:32;12.20;71.10
68922;DHT22;55959;51.244;5.724;2024-02-21T06:39:59;12.20;71.10
68922;DHT22;55959;51.244;5.724;2024-02-21T06:42:25;12.20;71.10
68922;DHT22;55959;51.244;5.724;2024-02-21T06:44:51;12.20;71.00
68922;DHT22;55959;51.244;5.724;2024-02-21T06:47:17;12.20;71.10
68922;DHT22;55959;51.244;5.724;2024-02-21T06:49:43;12.20;71.10
68922;DHT22;55959;51.244;5.724;2024-02-21T06:52:13;12.20;71.10
68922;DHT22;55959;51.244;5.724;2024-02-21T06:54:42;12.20;71.10
68922;DHT22;55959;51.244;5.724;2024-02-21T06:57:08;12.20;71.10
68922;DHT22;55959;51.244;5.724;2024-02-21T06:59:34;12.20;71.10
68922;DHT22;55959;51.244;5.724;2024-02-21T07:01:59;12.20;71.10
68922;DHT22;55959;51.244;5.724;2024-02-21T07:04:26;12.20;71.10
68922;DHT22;55959;51.244;5.724;2024-02-21T07:06:52;12.20;71.00
68922;DHT22;55959;51.244;5.724;2024-02-21T07:09:18;12.20;71.00
68922;DHT22;55959;51.244;5.724;2024-02-21T07:11:44;12.20;70.90
68922;DHT22;55959;51.244;5.724;2024-02-21T07:14:09;12.20;71.00
68922;DHT22;55959;51.244;5.724;2024-02-21T07:16:35;12.20;71.00
68922;DHT22;55959;51.244;5.724;2024-02-21T07:19:02;12.20;70.90
68922;DHT22;55959;51.244;5.724;2024-02-21T07:21:28;12.20;71.00
68922;DHT22;55959;51.244;5.724;2024-02-21T07:23:53;12.20;70.90
68922;DHT22;55959;51.244;5.724;2024-02-21T07:26:19;12.20;70.90
68922;DHT22;55959;51.244;5.724;2024-02-21T07:28:45;12.20;71.10
68922;DHT22;55959;51.244;5.724;2024-02-21T07:31:11;12.20;71.10
68922;DHT22;55959;51.244;5.724;2024-02-21T07:33:37;12.20;71.10
68922;DHT22;55959;51.244;5.724;2024-02-21T07:36:07;12.20;71.10
68922;DHT22;55959;51.244;5.724;2024-02-21T07:38:33;12.20;71.10
68922;DHT22;55959;51.244;5.724;2024-02-21T07:40:59;12.20;71.20
68922;DHT22;55959;51.244;5.724;2024-02-21T07:43:25;12.20;71.20
68922;DHT22;55959;51.244;5.724;2024-02-21T07:45:52;12.20;71.30
68922;DHT22;55959;51.244;5.724;2024-02-21T07:48:21;12.20;71.30
68922;DHT22;55959;51.244;5.724;2024-02-21T07:50:52;12.20;71.40
68922;DHT22;55959;51.244;5.724;2024-02-21T07:53:17;12.20;71.40
68922;DHT22;55959;51.244;5.724;2024-02-21T07:55:45;12.20;71.50
68922;DHT22;55959;51.244;5.724;2024-02-21T07:58:10;12.20;71.60
68922;DHT22;55959;51.244;5.724;2024-02-21T08:00:36;12.20;71.70
68922;DHT22;55959;51.244;5.724;2024-02-21T08:03:02;12.20;71.80
68922;DHT22;55959;51.244;5.724;2024-02-21T08:05:28;12.20;71.90
68922;DHT22;55959;51.244;5.724;2024-02-21T08:07:55;12.20;71.70
68922;DHT22;55959;51.244;5.724;2024-02-21T08:10:21;12.20;71.90
68922;DHT22;55959;51.244;5.724;2024-02-21T08:12:47;12.20;71.80
68922;DHT22;55959;51.244;5.724;2024-02-21T08:15:12;12.20;71.80
68922;DHT22;55959;51.244;5.724;2024-02-21T08:17:38;12.20;71.90
68922;DHT22;55959;51.244;5.724;2024-02-21T08:20:04;12.20;71.90
68922;DHT22;55959;51.244;5.724;2024-02-21T08:22:30;12.20;72.00
68922;DHT22;55959;51.244;5.724;2024-02-21T08:24:57;12.10;72.10
68922;DHT22;55959;51.244;5.724;2024-02-21T08:27:22;12.10;72.20
68922;DHT22;55959;51.244;5.724;2024-02-21T08:29:48;12.10;72.50
68922;DHT22;55959;51.244;5.724;2024-02-21T08:32:14;12.10;72.70
68922;DHT22;55959;51.244;5.724;2024-02-21T08:34:40;12.10;72.80
68922;DHT22;55959;51.244;5.724;2024-02-21T08:37:05;12.10;72.90
68922;DHT22;55959;51.244;5.724;2024-02-21T08:39:31;12.10;73.00
68922;DHT22;55959;51.244;5.724;2024-02-21T08:41:57;12.10;73.10
68922;DHT22;55959;51.244;5.724;2024-02-21T08:44:23;12.10;73.10
68922;DHT22;55959;51.244;5.724;2024-02-21T08:46:52;12.10;73.10
68922;DHT22;55959;51.244;5.724;2024-02-21T08:49:17;12.10;73.20
68922;DHT22;55959;51.244;5.724;2024-02-21T08:51:43;12.10;73.20
68922;DHT22;55959;51.244;5.724;2024-02-21T08:54:09;12.10;73.30
68922;DHT22;55959;51.244;5.724;2024-02-21T08:56:35;12.10;73.30
68922;DHT22;55959;51.244;5.724;2024-02-21T08:59:01;12.10;73.30
68922;DHT22;55959;51.244;5.724;2024-02-21T09:01:27;12.10;73.40
68922;DHT22;55959;51.244;5.724;2024-02-21T09:03:54;12.10;73.50
68922;DHT22;55959;51.244;5.724;2024-02-21T09:06:22;12.10;73.50
68922;DHT22;55959;51.244;5.724;2024-02-21T09:08:48;12.10;73.60
68922;DHT22;55959;51.244;5.724;2024-02-21T09:11:14;12.10;73.50
68922;DHT22;55959;51.244;5.724;2024-02-21T09:13:40;12.10;73.60
68922;DHT22;55959;51.244;5.724;2024-02-21T09:16:06;12.10;73.60
68922;DHT22;55959;51.244;5.724;2024-02-21T09:18:32;12.10;73.50
68922;DHT22;55959;51.244;5.724;2024-02-21T09:20:57;12.20;73.50
68922;DHT22;55959;51.244;5.724;2024-02-21T09:23:26;12.20;73.40
68922;DHT22;55959;51.244;5.724;2024-02-21T09:25:52;12.20;73.30
68922;DHT22;55959;51.244;5.724;2024-02-21T09:28:18;12.20;73.10
68922;DHT22;55959;51.244;5.724;2024-02-21T09:30:44;12.20;72.80
68922;DHT22;55959;51.244;5.724;2024-02-21T09:33:12;12.30;72.70
68922;DHT22;55959;51.244;5.724;2024-02-21T09:35:38;12.30;72.50
68922;DHT22;55959;51.244;5.724;2024-02-21T09:38:04;12.30;72.50
68922;DHT22;55959;51.244;5.724;2024-02-21T09:40:30;12.30;72.40
68922;DHT22;55959;51.244;5.724;2024-02-21T09:43:02;12.30;72.20
68922;DHT22;55959;51.244;5.724;2024-02-21T09:45:33;12.30;72.10
68922;DHT22;55959;51.244;5.724;2024-02-21T09:50:57;12.40;71.80
68922;DHT22;55959;51.244;5.724;2024-02-21T09:53:24;12.40;71.70
68922;DHT22;55959;51.244;5.724;2024-02-21T09:55:52;12.40;71.30
68922;DHT22;55959;51.244;5.724;2024-02-21T09:58:18;12.40;71.10
68922;DHT22;55959;51.244;5.724;2024-02-21T10:00:43;12.40;71.00
68922;DHT22;55959;51.244;5.724;2024-02-21T10:03:09;12.50;70.90
68922;DHT22;55959;51.244;5.724;2024-02-21T10:05:36;12.50;70.90
68922;DHT22;55959;51.244;5.724;2024-02-21T10:08:02;12.50;70.60
68922;DHT22;55959;51.244;5.724;2024-02-21T10:10:29;12.50;70.20
68922;DHT22;55959;51.244;5.724;2024-02-21T10:12:55;12.50;70.10
68922;DHT22;55959;51.244;5.724;2024-02-21T10:15:24;12.60;70.10
68922;DHT22;55959;51.244;5.724;2024-02-21T10:17:58;12.60;69.70
68922;DHT22;55959;51.244;5.724;2024-02-21T10:20:26;12.60;69.50
68922;DHT22;55959;51.244;5.724;2024-02-21T10:23:05;12.60;69.50
68922;DHT22;55959;51.244;5.724;2024-02-21T10:25:35;12.60;69.60
68922;DHT22;55959;51.244;5.724;2024-02-21T10:28:04;12.60;69.50
68922;DHT22;55959;51.244;5.724;2024-02-21T10:30:30;12.60;69.50
68922;DHT22;55959;51.244;5.724;2024-02-21T10:32:56;12.70;69.60
68922;DHT22;55959;51.244;5.724;2024-02-21T10:37:53;12.70;69.30
68922;DHT22;55959;51.244;5.724;2024-02-21T10:40:31;12.70;69.10
68922;DHT22;55959;51.244;5.724;2024-02-21T10:42:59;12.80;69.20
68922;DHT22;55959;51.244;5.724;2024-02-21T10:45:30;12.80;69.10
68922;DHT22;55959;51.244;5.724;2024-02-21T10:48:20;12.80;69.10
68922;DHT22;55959;51.244;5.724;2024-02-21T10:51:03;12.80;69.10
68922;DHT22;55959;51.244;5.724;2024-02-21T10:56:29;12.90;69.00
68922;DHT22;55959;51.244;5.724;2024-02-21T10:59:01;12.90;69.00
68922;DHT22;55959;51.244;5.724;2024-02-21T11:01:28;13.00;69.00
68922;DHT22;55959;51.244;5.724;2024-02-21T11:04:10;13.00;68.80
68922;DHT22;55959;51.244;5.724;2024-02-21T11:06:38;13.00;68.80
68922;DHT22;55959;51.244;5.724;2024-02-21T11:09:07;13.00;68.80
68922;DHT22;55959;51.244;5.724;2024-02-21T11:14:22;13.10;68.50
68922;DHT22;55959;51.244;5.724;2024-02-21T11:16:48;13.10;68.30
68922;DHT22;55959;51.244;5.724;2024-02-21T11:19:21;13.10;68.20
68922;DHT22;55959;51.244;5.724;2024-02-21T11:21:48;13.20;68.40
68922;DHT22;55959;51.244;5.724;2024-02-21T11:24:25;13.20;68.40
68922;DHT22;55959;51.244;5.724;2024-02-21T11:26:52;13.20;68.10
68922;DHT22;55959;51.244;5.724;2024-02-21T11:29:23;13.20;68.00
68922;DHT22;55959;51.244;5.724;2024-02-21T11:31:54;13.30;68.30
68922;DHT22;55959;51.244;5.724;2024-02-21T11:34:20;13.30;68.40
68922;DHT22;55959;51.244;5.724;2024-02-21T11:36:52;13.30;68.20
68922;DHT22;55959;51.244;5.724;2024-02-21T11:39:23;13.30;68.20
68922;DHT22;55959;51.244;5.724;2024-02-21T11:42:06;13.40;68.40
68922;DHT22;55959;51.244;5.724;2024-02-21T11:44:35;13.40;68.10
68922;DHT22;55959;51.244;5.724;2024-02-21T11:47:08;13.40;67.60
68922;DHT22;55959;51.244;5.724;2024-02-21T11:49:39;13.50;67.50
68922;DHT22;55959;51.244;5.724;2024-02-21T11:52:09;13.50;67.50
68922;DHT22;55959;51.244;5.724;2024-02-21T11:54:35;13.50;67.40
68922;DHT22;55959;51.244;5.724;2024-02-21T11:57:01;13.60;67.40
68922;DHT22;55959;51.244;5.724;2024-02-21T11:59:30;13.60;67.50
68922;DHT22;55959;51.244;5.724;2024-02-21T12:02:01;13.70;67.40
68922;DHT22;55959;51.244;5.724;2024-02-21T12:04:30;13.70;67.40
68922;DHT22;55959;51.244;5.724;2024-02-21T12:06:59;13.70;67.20
68922;DHT22;55959;51.244;5.724;2024-02-21T12:09:25;13.80;67.10
68922;DHT22;55959;51.244;5.724;2024-02-21T12:11:59;13.80;66.60
68922;DHT22;55959;51.244;5.724;2024-02-21T12:14:28;13.80;66.30
68922;DHT22;55959;51.244;5.724;2024-02-21T12:17:01;13.90;66.20
68922;DHT22;55959;51.244;5.724;2024-02-21T12:19:30;13.90;65.80
68922;DHT22;55959;51.244;5.724;2024-02-21T12:22:00;13.90;65.70
68922;DHT22;55959;51.244;5.724;2024-02-21T12:24:28;13.90;65.60
68922;DHT22;55959;51.244;5.724;2024-02-21T12:26:55;14.00;65.80
68922;DHT22;55959;51.244;5.724;2024-02-21T12:29:25;14.00;65.40
68922;DHT22;55959;51.244;5.724;2024-02-21T12:31:51;14.00;65.10
68922;DHT22;55959;51.244;5.724;2024-02-21T12:34:17;14.10;64.60
68922;DHT22;55959;51.244;5.724;2024-02-21T12:36:46;14.10;64.50
68922;DHT22;55959;51.244;5.724;2024-02-21T12:39:13;14.10;64.50
68922;DHT22;55959;51.244;5.724;2024-02-21T12:41:39;14.20;64.70
68922;DHT22;55959;51.244;5.724;2024-02-21T12:44:10;14.20;64.40
68922;DHT22;55959;51.244;5.724;2024-02-21T12:46:39;14.20;64.80
68922;DHT22;55959;51.244;5.724;2024-02-21T12:49:08;14.30;64.00
68922;DHT22;55959;51.244;5.724;2024-02-21T12:51:34;14.30;63.70
68922;DHT22;55959;51.244;5.724;2024-02-21T12:54:00;14.30;63.40
68922;DHT22;55959;51.244;5.724;2024-02-21T12:56:28;14.30;63.00
68922;DHT22;55959;51.244;5.724;2024-02-21T12:58:55;14.30;62.80
68922;DHT22;55959;51.244;5.724;2024-02-21T13:01:21;14.40;62.40
68922;DHT22;55959;51.244;5.724;2024-02-21T13:03:47;14.30;62.30
68922;DHT22;55959;51.244;5.724;2024-02-21T13:06:13;14.40;62.40
68922;DHT22;55959;51.244;5.724;2024-02-21T13:08:39;14.40;62.30
68922;DHT22;55959;51.244;5.724;2024-02-21T13:11:06;14.40;62.30
68922;DHT22;55959;51.244;5.724;2024-02-21T13:13:32;14.40;62.20
68922;DHT22;55959;51.244;5.724;2024-02-21T13:15:58;14.30;62.00
68922;DHT22;55959;51.244;5.724;2024-02-21T13:18:24;14.30;61.80
68922;DHT22;55959;51.244;5.724;2024-02-21T13:20:50;14.30;61.80
68922;DHT22;55959;51.244;5.724;2024-02-21T13:23:16;14.30;61.80
68922;DHT22;55959;51.244;5.724;2024-02-21T13:25:42;14.30;62.00
68922;DHT22;55959;51.244;5.724;2024-02-21T13:28:09;14.30;61.90
68922;DHT22;55959;51.244;5.724;2024-02-21T13:30:35;14.30;61.90
68922;DHT22;55959;51.244;5.724;2024-02-21T13:33:01;14.20;62.00
68922;DHT22;55959;51.244;5.724;2024-02-21T13:35:28;14.20;62.10
68922;DHT22;55959;51.244;5.724;2024-02-21T13:37:54;14.20;62.20
68922;DHT22;55959;51.244;5.724;2024-02-21T13:40:20;14.20;62.20
68922;DHT22;55959;51.244;5.724;2024-02-21T13:42:46;14.20;62.30
68922;DHT22;55959;51.244;5.724;2024-02-21T13:45:11;14.30;62.40
68922;DHT22;55959;51.244;5.724;2024-02-21T13:47:37;14.20;62.20
68922;DHT22;55959;51.244;5.724;2024-02-21T13:50:05;14.30;62.40
68922;DHT22;55959;51.244;5.724;2024-02-21T13:52:36;14.30;62.40
68922;DHT22;55959;51.244;5.724;2024-02-21T13:55:05;14.20;62.30
68922;DHT22;55959;51.244;5.724;2024-02-21T13:57:37;14.20;62.30
68922;DHT22;55959;51.244;5.724;2024-02-21T14:00:06;14.20;62.30
68922;DHT22;55959;51.244;5.724;2024-02-21T14:02:36;14.30;62.40
68922;DHT22;55959;51.244;5.724;2024-02-21T14:05:02;14.30;62.30
68922;DHT22;55959;51.244;5.724;2024-02-21T14:07:31;14.30;62.20
68922;DHT22;55959;51.244;5.724;2024-02-21T14:09:58;14.30;62.30
68922;DHT22;55959;51.244;5.724;2024-02-21T14:12:24;14.30;62.30
68922;DHT22;55959;51.244;5.724;2024-02-21T14:14:50;14.30;62.40
68922;DHT22;55959;51.244;5.724;2024-02-21T14:17:17;14.30;62.40
68922;DHT22;55959;51.244;5.724;2024-02-21T14:19:43;14.30;62.50
68922;DHT22;55959;51.244;5.724;2024-02-21T14:22:09;14.30;62.40
68922;DHT22;55959;51.244;5.724;2024-02-21T14:24:37;14.30;62.60
68922;DHT22;55959;51.244;5.724;2024-02-21T14:27:02;14.30;62.50
68922;DHT22;55959;51.244;5.724;2024-02-21T14:29:29;14.30;62.30
68922;DHT22;55959;51.244;5.724;2024-02-21T14:31:54;14.40;62.00
68922;DHT22;55959;51.244;5.724;2024-02-21T14:34:20;14.30;61.80
68922;DHT22;55959;51.244;5.724;2024-02-21T14:36:46;14.30;61.20
68922;DHT22;55959;51.244;5.724;2024-02-21T14:39:12;14.40;61.10
68922;DHT22;55959;51.244;5.724;2024-02-21T14:41:37;14.30;60.90
68922;DHT22;55959;51.244;5.724;2024-02-21T14:44:05;14.40;61.00
68922;DHT22;55959;51.244;5.724;2024-02-21T14:46:31;14.30;61.00
68922;DHT22;55959;51.244;5.724;2024-02-21T14:48:57;14.30;61.20
68922;DHT22;55959;51.244;5.724;2024-02-21T14:51:23;14.40;61.50
68922;DHT22;55959;51.244;5.724;2024-02-21T14:53:49;14.30;61.50
68922;DHT22;55959;51.244;5.724;2024-02-21T14:56:15;14.30;61.60
68922;DHT22;55959;51.244;5.724;2024-02-21T14:58:42;14.30;61.70
68922;DHT22;55959;51.244;5.724;2024-02-21T15:01:08;14.30;61.80
68922;DHT22;55959;51.244;5.724;2024-02-21T15:03:35;14.30;61.60
68922;DHT22;55959;51.244;5.724;2024-02-21T15:06:01;14.40;61.70
68922;DHT22;55959;51.244;5.724;2024-02-21T15:08:28;14.40;61.80
68922;DHT22;55959;51.244;5.724;2024-02-21T15:10:54;14.30;61.80
68922;DHT22;55959;51.244;5.724;2024-02-21T15:13:20;14.40;62.20
68922;DHT22;55959;51.244;5.724;2024-02-21T15:15:47;14.30;62.20
68922;DHT22;55959;51.244;5.724;2024-02-21T15:18:14;14.30;62.40
68922;DHT22;55959;51.244;5.724;2024-02-21T15:20:40;14.30;62.60
68922;DHT22;55959;51.244;5.724;2024-02-21T15:23:06;14.20;62.60
68922;DHT22;55959;51.244;5.724;2024-02-21T15:25:32;14.20;62.40
68922;DHT22;55959;51.244;5.724;2024-02-21T15:27:59;14.20;62.60
68922;DHT22;55959;51.244;5.724;2024-02-21T15:30:25;14.20;62.80
68922;DHT22;55959;51.244;5.724;2024-02-21T15:32:52;14.10;62.80
68922;DHT22;55959;51.244;5.724;2024-02-21T15:35:21;14.10;63.00
68922;DHT22;55959;51.244;5.724;2024-02-21T15:37:46;14.10;63.00
68922;DHT22;55959;51.244;5.724;2024-02-21T15:40:13;14.10;63.80
68922;DHT22;55959;51.244;5.724;2024-02-21T15:42:40;14.10;63.00
68922;DHT22;55959;51.244;5.724;2024-02-21T15:45:06;14.00;63.20